A- A+ FrançaisEnglishEspañol中国

Services sur Internet Soldes sur Internet Des idées de cadeaux Météo Météo aéro

La météo à : Autours de vous Tarbes-Lourdes-PyrénéesPontarlier Le-Mans-Arnage Pontoise-Cormeilles-En-Vexin

manche à air

La météo aéronautique pour les pilotes, la préparation du vol avec les METAR (METeorological Aerodrome Report, message d'observation des conditions météorologiques pour l'aviation) et Les TAF (Terminal Aerodrome Forecast : message de prévision à court terme des conditions météorologiques pour l'aviation). Et les autres ressources comme les VAC (Visual Approch Chart) et les NOTAM (Notice To Airman) pour préprer les vols.

Aéroport Buckeburg (Allemagne) / OACI ETHB

L'altitude de l'aéroport Buckeburg est de 70 m = 230 ft. Il est situé à proximité de (Allemagne). La météo générale à 5 jours est disponible pour Achum situé à 0.5 km.

METAR de l'aéroport Buckeburg - ETHB

ETHB 110520Z 19015KT 9999 SCT015 BKN034 04/01 Q1009 BLU WHT TEMPO GRN

Décodage du METAR de l'aéroport Buckeburg (DE)

METAR émis par ETHB le mercredi 11 décembre 2019 à 05:20 heure TU. Attention ce METAR est obsolète car il a été émis il y a 3 heure et 34 minutes.

La visibilité est de supérieure à 10 km = supérieure à 6.2 sm.

La température est de 4°C = 39 °F et le point rosée est de 1°C = 34 °F . Ce qui correspond à 81% d'humidité relative.

Le QNH est de 1009 hPa = 29.8 inHg

Vent de 15 kt = 28 km/h, orienté à 190°.

Nuages : Nuages épars à 1500 ft = 460 mètres. Couverture nuageuse fragmentée à 3400 ft = 1040 mètres.

BLU WHT temporairement grêle N

TAF de l'aéroport Buckeburg - ETHB

ETHB 110521Z 1106/1115 19010KT 8000 -RA BKN015

ETHB 110521Z 1106/1115 19010KT 8000 faible RA couverture nuageuse fragmentée à 015

Aéroport à proximité de Buckeburg

Météo générale à 5 jours à Achum (0.5 km)Aéroport Rinteln (12 km)Aéroport Porta Westfalica (16 km)Aéroport Wunstorf (31 km)Aéroport Bad Pyrmont (38 km)Aéroport Blomberg Borkhausen (40 km)Aéroport Hannover (46 km)

Vue aérienne de l'aéroport Buckeburg

NOTAM de l'aéroport Buckeburg

Les NOTAM sont fournis sans aucune garantie de leur actualité. Le pilote est le seul responsable de la vérification de sa validité avant de l'utiliser opérationnellement pour préparer un vol ou l'utiliser lors de sa navigation.

Pas de NOTAM

Sources des données